sensor_id;sensor_type;location;lat;lon;timestamp;P1;durP1;ratioP1;P2;durP2;ratioP2
78183;SDS011;67442;44.570;18.610;2023-11-19T00:01:54;12.07;;;6.32;;
78183;SDS011;67442;44.570;18.610;2023-11-19T00:04:23;12.15;;;6.55;;
78183;SDS011;67442;44.570;18.610;2023-11-19T00:06:54;12.25;;;6.07;;
78183;SDS011;67442;44.570;18.610;2023-11-19T00:09:30;11.98;;;6.05;;
78183;SDS011;67442;44.570;18.610;2023-11-19T00:12:01;11.52;;;5.97;;
78183;SDS011;67442;44.570;18.610;2023-11-19T00:14:32;12.50;;;6.35;;
78183;SDS011;67442;44.570;18.610;2023-11-19T00:17:00;11.73;;;6.13;;
78183;SDS011;67442;44.570;18.610;2023-11-19T00:19:26;12.50;;;6.70;;
78183;SDS011;67442;44.570;18.610;2023-11-19T00:21:57;11.35;;;5.97;;
78183;SDS011;67442;44.570;18.610;2023-11-19T00:24:28;12.77;;;6.13;;
78183;SDS011;67442;44.570;18.610;2023-11-19T00:26:56;11.60;;;5.88;;
78183;SDS011;67442;44.570;18.610;2023-11-19T00:29:23;11.85;;;6.40;;
78183;SDS011;67442;44.570;18.610;2023-11-19T00:31:51;12.02;;;5.93;;
78183;SDS011;67442;44.570;18.610;2023-11-19T00:34:18;12.50;;;5.82;;
78183;SDS011;67442;44.570;18.610;2023-11-19T00:36:50;11.75;;;5.90;;
78183;SDS011;67442;44.570;18.610;2023-11-19T00:39:18;11.82;;;5.78;;
78183;SDS011;67442;44.570;18.610;2023-11-19T00:41:46;12.40;;;6.53;;
78183;SDS011;67442;44.570;18.610;2023-11-19T00:44:14;11.13;;;5.82;;
78183;SDS011;67442;44.570;18.610;2023-11-19T00:46:41;11.13;;;5.72;;
78183;SDS011;67442;44.570;18.610;2023-11-19T00:49:09;13.43;;;6.72;;
78183;SDS011;67442;44.570;18.610;2023-11-19T00:51:37;13.32;;;6.45;;
78183;SDS011;67442;44.570;18.610;2023-11-19T00:54:04;12.55;;;6.45;;
78183;SDS011;67442;44.570;18.610;2023-11-19T00:56:36;14.23;;;6.82;;
78183;SDS011;67442;44.570;18.610;2023-11-19T00:59:03;10.38;;;5.82;;
78183;SDS011;67442;44.570;18.610;2023-11-19T01:01:35;12.75;;;6.20;;
78183;SDS011;67442;44.570;18.610;2023-11-19T01:04:07;12.43;;;5.68;;
78183;SDS011;67442;44.570;18.610;2023-11-19T01:06:34;11.02;;;6.20;;
78183;SDS011;67442;44.570;18.610;2023-11-19T01:09:02;9.65;;;5.53;;
78183;SDS011;67442;44.570;18.610;2023-11-19T01:11:29;11.38;;;5.82;;
78183;SDS011;67442;44.570;18.610;2023-11-19T01:13:55;10.93;;;6.03;;
78183;SDS011;67442;44.570;18.610;2023-11-19T01:16:22;11.77;;;6.20;;
78183;SDS011;67442;44.570;18.610;2023-11-19T01:18:50;12.80;;;6.13;;
78183;SDS011;67442;44.570;18.610;2023-11-19T01:21:18;11.40;;;5.68;;
78183;SDS011;67442;44.570;18.610;2023-11-19T01:23:44;11.93;;;6.45;;
78183;SDS011;67442;44.570;18.610;2023-11-19T01:26:12;13.80;;;7.15;;
78183;SDS011;67442;44.570;18.610;2023-11-19T01:28:39;13.05;;;6.45;;
78183;SDS011;67442;44.570;18.610;2023-11-19T01:31:10;10.52;;;5.70;;
78183;SDS011;67442;44.570;18.610;2023-11-19T01:33:38;11.70;;;6.40;;
78183;SDS011;67442;44.570;18.610;2023-11-19T01:36:07;12.88;;;6.10;;
78183;SDS011;67442;44.570;18.610;2023-11-19T01:38:35;10.18;;;5.78;;
78183;SDS011;67442;44.570;18.610;2023-11-19T01:41:02;11.95;;;6.13;;
78183;SDS011;67442;44.570;18.610;2023-11-19T01:43:37;11.48;;;5.88;;
78183;SDS011;67442;44.570;18.610;2023-11-19T01:46:08;10.85;;;5.63;;
78183;SDS011;67442;44.570;18.610;2023-11-19T01:48:41;12.63;;;6.28;;
78183;SDS011;67442;44.570;18.610;2023-11-19T01:51:10;11.25;;;5.68;;
78183;SDS011;67442;44.570;18.610;2023-11-19T01:53:42;10.98;;;5.75;;
78183;SDS011;67442;44.570;18.610;2023-11-19T01:56:11;11.45;;;5.65;;
78183;SDS011;67442;44.570;18.610;2023-11-19T01:58:42;10.10;;;5.95;;
78183;SDS011;67442;44.570;18.610;2023-11-19T02:01:12;12.27;;;6.28;;
78183;SDS011;67442;44.570;18.610;2023-11-19T02:03:39;11.93;;;6.13;;
78183;SDS011;67442;44.570;18.610;2023-11-19T02:06:07;10.63;;;6.47;;
78183;SDS011;67442;44.570;18.610;2023-11-19T02:08:36;11.55;;;5.93;;
78183;SDS011;67442;44.570;18.610;2023-11-19T02:11:07;11.68;;;6.28;;
78183;SDS011;67442;44.570;18.610;2023-11-19T02:13:35;10.50;;;5.95;;
78183;SDS011;67442;44.570;18.610;2023-11-19T02:16:09;11.35;;;5.78;;
78183;SDS011;67442;44.570;18.610;2023-11-19T02:18:36;11.52;;;5.55;;
78183;SDS011;67442;44.570;18.610;2023-11-19T02:21:03;9.82;;;5.32;;
78183;SDS011;67442;44.570;18.610;2023-11-19T02:23:32;10.00;;;5.72;;
78183;SDS011;67442;44.570;18.610;2023-11-19T02:26:05;10.02;;;5.55;;
78183;SDS011;67442;44.570;18.610;2023-11-19T02:28:50;10.80;;;5.80;;
78183;SDS011;67442;44.570;18.610;2023-11-19T02:31:18;11.52;;;5.80;;
78183;SDS011;67442;44.570;18.610;2023-11-19T02:33:45;9.23;;;5.35;;
78183;SDS011;67442;44.570;18.610;2023-11-19T02:36:18;10.35;;;5.88;;
78183;SDS011;67442;44.570;18.610;2023-11-19T02:38:49;11.52;;;5.68;;
78183;SDS011;67442;44.570;18.610;2023-11-19T02:41:17;11.32;;;6.03;;
78183;SDS011;67442;44.570;18.610;2023-11-19T02:43:44;11.13;;;6.10;;
78183;SDS011;67442;44.570;18.610;2023-11-19T02:46:14;11.35;;;5.65;;
78183;SDS011;67442;44.570;18.610;2023-11-19T02:48:43;12.18;;;5.93;;
78183;SDS011;67442;44.570;18.610;2023-11-19T02:51:11;11.55;;;5.95;;
78183;SDS011;67442;44.570;18.610;2023-11-19T02:53:39;9.70;;;5.25;;
78183;SDS011;67442;44.570;18.610;2023-11-19T02:56:06;11.00;;;5.57;;
78183;SDS011;67442;44.570;18.610;2023-11-19T02:58:53;11.18;;;5.82;;
78183;SDS011;67442;44.570;18.610;2023-11-19T03:01:21;12.35;;;6.25;;
78183;SDS011;67442;44.570;18.610;2023-11-19T03:03:55;9.57;;;5.53;;
78183;SDS011;67442;44.570;18.610;2023-11-19T03:06:30;9.60;;;5.35;;
78183;SDS011;67442;44.570;18.610;2023-11-19T03:09:01;9.77;;;5.25;;
78183;SDS011;67442;44.570;18.610;2023-11-19T03:11:34;12.98;;;6.47;;
78183;SDS011;67442;44.570;18.610;2023-11-19T03:14:01;11.18;;;5.68;;
78183;SDS011;67442;44.570;18.610;2023-11-19T03:16:32;9.52;;;5.25;;
78183;SDS011;67442;44.570;18.610;2023-11-19T03:19:00;12.15;;;6.45;;
78183;SDS011;67442;44.570;18.610;2023-11-19T03:21:27;10.82;;;5.85;;
78183;SDS011;67442;44.570;18.610;2023-11-19T03:23:54;10.98;;;5.90;;
78183;SDS011;67442;44.570;18.610;2023-11-19T03:26:22;9.82;;;5.82;;
78183;SDS011;67442;44.570;18.610;2023-11-19T03:28:49;10.30;;;5.70;;
78183;SDS011;67442;44.570;18.610;2023-11-19T03:31:16;8.60;;;5.03;;
78183;SDS011;67442;44.570;18.610;2023-11-19T03:33:44;8.68;;;5.13;;
78183;SDS011;67442;44.570;18.610;2023-11-19T03:36:12;10.35;;;5.82;;
78183;SDS011;67442;44.570;18.610;2023-11-19T03:38:38;11.02;;;5.53;;
78183;SDS011;67442;44.570;18.610;2023-11-19T03:41:11;11.07;;;5.85;;
78183;SDS011;67442;44.570;18.610;2023-11-19T03:43:45;9.25;;;5.15;;
78183;SDS011;67442;44.570;18.610;2023-11-19T03:46:19;10.98;;;5.70;;
78183;SDS011;67442;44.570;18.610;2023-11-19T03:48:50;11.10;;;5.63;;
78183;SDS011;67442;44.570;18.610;2023-11-19T03:51:18;9.82;;;5.65;;
78183;SDS011;67442;44.570;18.610;2023-11-19T03:53:45;9.07;;;5.13;;
78183;SDS011;67442;44.570;18.610;2023-11-19T03:56:12;10.00;;;5.47;;
78183;SDS011;67442;44.570;18.610;2023-11-19T03:58:42;10.02;;;5.53;;
78183;SDS011;67442;44.570;18.610;2023-11-19T04:01:12;12.45;;;6.32;;
78183;SDS011;67442;44.570;18.610;2023-11-19T04:03:43;9.52;;;5.10;;
78183;SDS011;67442;44.570;18.610;2023-11-19T04:06:14;11.25;;;5.65;;
78183;SDS011;67442;44.570;18.610;2023-11-19T04:08:41;8.50;;;5.20;;
78183;SDS011;67442;44.570;18.610;2023-11-19T04:11:08;11.18;;;5.35;;
78183;SDS011;67442;44.570;18.610;2023-11-19T04:13:35;9.70;;;5.10;;
78183;SDS011;67442;44.570;18.610;2023-11-19T04:16:03;10.13;;;5.82;;
78183;SDS011;67442;44.570;18.610;2023-11-19T04:18:31;9.13;;;5.18;;
78183;SDS011;67442;44.570;18.610;2023-11-19T04:20:59;11.02;;;5.65;;
78183;SDS011;67442;44.570;18.610;2023-11-19T04:23:26;8.63;;;4.57;;
78183;SDS011;67442;44.570;18.610;2023-11-19T04:25:53;9.07;;;5.25;;
78183;SDS011;67442;44.570;18.610;2023-11-19T04:28:22;9.43;;;5.28;;
78183;SDS011;67442;44.570;18.610;2023-11-19T04:30:52;9.80;;;5.28;;
78183;SDS011;67442;44.570;18.610;2023-11-19T04:33:24;11.05;;;5.90;;
78183;SDS011;67442;44.570;18.610;2023-11-19T04:35:51;8.77;;;5.15;;
78183;SDS011;67442;44.570;18.610;2023-11-19T04:38:19;8.77;;;5.03;;
78183;SDS011;67442;44.570;18.610;2023-11-19T04:40:46;10.52;;;5.75;;
78183;SDS011;67442;44.570;18.610;2023-11-19T04:43:14;9.82;;;5.32;;
78183;SDS011;67442;44.570;18.610;2023-11-19T04:45:41;11.52;;;5.60;;
78183;SDS011;67442;44.570;18.610;2023-11-19T04:48:12;9.93;;;5.65;;
78183;SDS011;67442;44.570;18.610;2023-11-19T04:50:39;10.40;;;5.70;;
78183;SDS011;67442;44.570;18.610;2023-11-19T04:53:11;10.18;;;5.68;;
78183;SDS011;67442;44.570;18.610;2023-11-19T04:55:39;10.43;;;6.18;;
78183;SDS011;67442;44.570;18.610;2023-11-19T04:58:07;10.38;;;5.47;;
78183;SDS011;67442;44.570;18.610;2023-11-19T05:00:34;10.52;;;5.25;;
78183;SDS011;67442;44.570;18.610;2023-11-19T05:03:01;9.07;;;5.68;;
78183;SDS011;67442;44.570;18.610;2023-11-19T05:05:29;10.60;;;5.60;;
78183;SDS011;67442;44.570;18.610;2023-11-19T05:08:00;9.93;;;5.70;;
78183;SDS011;67442;44.570;18.610;2023-11-19T05:10:28;9.27;;;5.43;;
78183;SDS011;67442;44.570;18.610;2023-11-19T05:12:58;8.88;;;5.15;;
78183;SDS011;67442;44.570;18.610;2023-11-19T05:15:26;9.75;;;5.38;;
78183;SDS011;67442;44.570;18.610;2023-11-19T05:17:53;8.68;;;5.03;;
78183;SDS011;67442;44.570;18.610;2023-11-19T05:20:24;9.55;;;4.97;;
78183;SDS011;67442;44.570;18.610;2023-11-19T05:22:55;8.60;;;5.38;;
78183;SDS011;67442;44.570;18.610;2023-11-19T05:25:28;9.88;;;5.15;;
78183;SDS011;67442;44.570;18.610;2023-11-19T05:27:55;9.18;;;5.43;;
78183;SDS011;67442;44.570;18.610;2023-11-19T05:30:23;10.32;;;5.63;;
78183;SDS011;67442;44.570;18.610;2023-11-19T05:32:50;9.25;;;5.10;;
78183;SDS011;67442;44.570;18.610;2023-11-19T05:35:22;9.05;;;5.40;;
78183;SDS011;67442;44.570;18.610;2023-11-19T05:37:49;9.63;;;5.50;;
78183;SDS011;67442;44.570;18.610;2023-11-19T05:40:20;11.55;;;5.53;;
78183;SDS011;67442;44.570;18.610;2023-11-19T05:42:51;8.85;;;5.30;;
78183;SDS011;67442;44.570;18.610;2023-11-19T05:45:18;10.35;;;5.43;;
78183;SDS011;67442;44.570;18.610;2023-11-19T05:47:50;9.77;;;5.03;;
78183;SDS011;67442;44.570;18.610;2023-11-19T05:50:21;10.25;;;5.80;;
78183;SDS011;67442;44.570;18.610;2023-11-19T05:52:48;10.05;;;5.80;;
78183;SDS011;67442;44.570;18.610;2023-11-19T05:55:15;9.13;;;5.30;;
78183;SDS011;67442;44.570;18.610;2023-11-19T05:57:42;9.50;;;5.40;;
78183;SDS011;67442;44.570;18.610;2023-11-19T06:00:10;9.68;;;5.35;;
78183;SDS011;67442;44.570;18.610;2023-11-19T06:02:38;7.28;;;4.70;;
78183;SDS011;67442;44.570;18.610;2023-11-19T06:05:06;10.32;;;5.20;;
78183;SDS011;67442;44.570;18.610;2023-11-19T06:07:34;10.13;;;5.18;;
78183;SDS011;67442;44.570;18.610;2023-11-19T06:10:02;8.82;;;4.93;;
78183;SDS011;67442;44.570;18.610;2023-11-19T06:12:33;9.15;;;5.28;;
78183;SDS011;67442;44.570;18.610;2023-11-19T06:15:04;13.18;;;5.78;;
78183;SDS011;67442;44.570;18.610;2023-11-19T06:17:31;11.05;;;5.57;;
78183;SDS011;67442;44.570;18.610;2023-11-19T06:20:03;8.75;;;5.05;;
78183;SDS011;67442;44.570;18.610;2023-11-19T06:22:32;8.55;;;5.28;;
78183;SDS011;67442;44.570;18.610;2023-11-19T06:25:00;7.63;;;4.78;;
78183;SDS011;67442;44.570;18.610;2023-11-19T06:27:28;9.27;;;5.35;;
78183;SDS011;67442;44.570;18.610;2023-11-19T06:30:00;9.55;;;5.50;;
78183;SDS011;67442;44.570;18.610;2023-11-19T06:32:28;9.75;;;5.10;;
78183;SDS011;67442;44.570;18.610;2023-11-19T06:34:55;10.52;;;5.50;;
78183;SDS011;67442;44.570;18.610;2023-11-19T06:37:23;9.32;;;5.60;;
78183;SDS011;67442;44.570;18.610;2023-11-19T06:39:50;9.32;;;5.30;;
78183;SDS011;67442;44.570;18.610;2023-11-19T06:42:17;9.18;;;5.05;;
78183;SDS011;67442;44.570;18.610;2023-11-19T06:44:44;9.13;;;5.22;;
78183;SDS011;67442;44.570;18.610;2023-11-19T06:47:11;11.18;;;5.70;;
78183;SDS011;67442;44.570;18.610;2023-11-19T06:49:45;8.05;;;4.70;;
78183;SDS011;67442;44.570;18.610;2023-11-19T06:52:16;10.27;;;5.68;;
78183;SDS011;67442;44.570;18.610;2023-11-19T06:54:43;9.38;;;5.15;;
78183;SDS011;67442;44.570;18.610;2023-11-19T06:57:13;8.60;;;5.15;;
78183;SDS011;67442;44.570;18.610;2023-11-19T06:59:41;9.35;;;5.38;;
78183;SDS011;67442;44.570;18.610;2023-11-19T07:02:12;8.82;;;5.10;;
78183;SDS011;67442;44.570;18.610;2023-11-19T07:04:39;10.70;;;5.57;;
78183;SDS011;67442;44.570;18.610;2023-11-19T07:07:07;8.80;;;5.22;;
78183;SDS011;67442;44.570;18.610;2023-11-19T07:09:35;8.77;;;4.93;;
78183;SDS011;67442;44.570;18.610;2023-11-19T07:12:04;9.93;;;5.18;;
78183;SDS011;67442;44.570;18.610;2023-11-19T07:14:32;7.88;;;5.43;;
78183;SDS011;67442;44.570;18.610;2023-11-19T07:16:59;9.32;;;4.88;;
78183;SDS011;67442;44.570;18.610;2023-11-19T07:19:26;9.85;;;5.65;;
78183;SDS011;67442;44.570;18.610;2023-11-19T07:21:54;9.68;;;5.57;;
78183;SDS011;67442;44.570;18.610;2023-11-19T07:24:22;10.30;;;5.78;;
78183;SDS011;67442;44.570;18.610;2023-11-19T07:26:50;9.23;;;5.22;;
78183;SDS011;67442;44.570;18.610;2023-11-19T07:29:17;9.93;;;5.68;;
78183;SDS011;67442;44.570;18.610;2023-11-19T07:31:44;9.55;;;5.38;;
78183;SDS011;67442;44.570;18.610;2023-11-19T07:34:13;11.00;;;5.32;;
78183;SDS011;67442;44.570;18.610;2023-11-19T07:36:40;8.65;;;5.28;;
78183;SDS011;67442;44.570;18.610;2023-11-19T07:39:08;8.77;;;5.00;;
78183;SDS011;67442;44.570;18.610;2023-11-19T07:41:36;10.77;;;5.50;;
78183;SDS011;67442;44.570;18.610;2023-11-19T07:44:02;10.02;;;5.75;;
78183;SDS011;67442;44.570;18.610;2023-11-19T07:46:34;8.55;;;5.25;;
78183;SDS011;67442;44.570;18.610;2023-11-19T07:49:02;8.50;;;5.00;;
78183;SDS011;67442;44.570;18.610;2023-11-19T07:51:33;11.80;;;6.55;;
78183;SDS011;67442;44.570;18.610;2023-11-19T07:54:01;8.93;;;4.80;;
78183;SDS011;67442;44.570;18.610;2023-11-19T07:56:30;8.65;;;5.05;;
78183;SDS011;67442;44.570;18.610;2023-11-19T07:59:19;9.77;;;5.22;;
78183;SDS011;67442;44.570;18.610;2023-11-19T08:01:51;8.35;;;5.28;;
78183;SDS011;67442;44.570;18.610;2023-11-19T08:04:22;10.20;;;5.90;;
78183;SDS011;67442;44.570;18.610;2023-11-19T08:06:53;9.45;;;5.32;;
78183;SDS011;67442;44.570;18.610;2023-11-19T08:09:20;9.82;;;5.40;;
78183;SDS011;67442;44.570;18.610;2023-11-19T08:11:48;9.82;;;5.50;;
78183;SDS011;67442;44.570;18.610;2023-11-19T08:14:16;10.07;;;5.20;;
78183;SDS011;67442;44.570;18.610;2023-11-19T08:16:44;7.93;;;4.85;;
78183;SDS011;67442;44.570;18.610;2023-11-19T08:19:12;8.80;;;5.55;;
78183;SDS011;67442;44.570;18.610;2023-11-19T08:21:39;9.02;;;5.18;;
78183;SDS011;67442;44.570;18.610;2023-11-19T08:24:06;9.57;;;5.10;;
78183;SDS011;67442;44.570;18.610;2023-11-19T08:26:34;9.10;;;5.32;;
78183;SDS011;67442;44.570;18.610;2023-11-19T08:29:01;8.50;;;5.30;;
78183;SDS011;67442;44.570;18.610;2023-11-19T08:31:33;10.60;;;5.57;;
78183;SDS011;67442;44.570;18.610;2023-11-19T08:34:04;8.60;;;4.95;;
78183;SDS011;67442;44.570;18.610;2023-11-19T08:36:34;7.95;;;4.95;;
78183;SDS011;67442;44.570;18.610;2023-11-19T08:39:05;8.55;;;4.90;;
78183;SDS011;67442;44.570;18.610;2023-11-19T08:41:34;9.27;;;5.47;;
78183;SDS011;67442;44.570;18.610;2023-11-19T08:44:06;8.80;;;5.28;;
78183;SDS011;67442;44.570;18.610;2023-11-19T08:46:37;8.30;;;5.00;;
78183;SDS011;67442;44.570;18.610;2023-11-19T08:49:08;9.57;;;5.53;;
78183;SDS011;67442;44.570;18.610;2023-11-19T08:51:36;8.90;;;4.82;;
78183;SDS011;67442;44.570;18.610;2023-11-19T08:54:03;9.65;;;5.13;;
78183;SDS011;67442;44.570;18.610;2023-11-19T08:56:31;8.27;;;4.78;;
78183;SDS011;67442;44.570;18.610;2023-11-19T08:59:00;7.93;;;5.00;;
78183;SDS011;67442;44.570;18.610;2023-11-19T09:01:27;9.30;;;5.30;;
78183;SDS011;67442;44.570;18.610;2023-11-19T09:03:58;8.15;;;5.00;;
78183;SDS011;67442;44.570;18.610;2023-11-19T09:06:29;9.45;;;5.35;;
78183;SDS011;67442;44.570;18.610;2023-11-19T09:09:00;7.65;;;4.90;;
78183;SDS011;67442;44.570;18.610;2023-11-19T09:11:28;9.18;;;5.43;;
78183;SDS011;67442;44.570;18.610;2023-11-19T09:13:56;9.23;;;5.07;;
78183;SDS011;67442;44.570;18.610;2023-11-19T09:16:23;9.00;;;5.10;;
78183;SDS011;67442;44.570;18.610;2023-11-19T09:18:51;8.20;;;4.80;;
78183;SDS011;67442;44.570;18.610;2023-11-19T09:21:18;8.30;;;4.72;;
78183;SDS011;67442;44.570;18.610;2023-11-19T09:23:45;9.68;;;5.22;;
78183;SDS011;67442;44.570;18.610;2023-11-19T09:26:15;8.45;;;5.05;;
78183;SDS011;67442;44.570;18.610;2023-11-19T09:28:42;8.98;;;5.07;;
78183;SDS011;67442;44.570;18.610;2023-11-19T09:31:17;8.95;;;5.13;;
78183;SDS011;67442;44.570;18.610;2023-11-19T09:33:49;8.65;;;5.20;;
78183;SDS011;67442;44.570;18.610;2023-11-19T09:36:20;6.93;;;4.50;;
78183;SDS011;67442;44.570;18.610;2023-11-19T09:38:48;9.27;;;5.43;;
78183;SDS011;67442;44.570;18.610;2023-11-19T09:41:16;7.40;;;4.68;;
78183;SDS011;67442;44.570;18.610;2023-11-19T09:43:47;10.10;;;5.38;;
78183;SDS011;67442;44.570;18.610;2023-11-19T09:46:18;7.82;;;4.88;;
78183;SDS011;67442;44.570;18.610;2023-11-19T09:48:46;8.50;;;4.78;;
78183;SDS011;67442;44.570;18.610;2023-11-19T09:51:20;8.23;;;4.93;;
78183;SDS011;67442;44.570;18.610;2023-11-19T09:53:48;8.77;;;4.60;;
78183;SDS011;67442;44.570;18.610;2023-11-19T09:56:15;8.98;;;5.00;;
78183;SDS011;67442;44.570;18.610;2023-11-19T09:58:43;7.78;;;4.65;;
78183;SDS011;67442;44.570;18.610;2023-11-19T10:01:10;8.68;;;4.85;;
78183;SDS011;67442;44.570;18.610;2023-11-19T10:03:39;9.40;;;5.15;;
78183;SDS011;67442;44.570;18.610;2023-11-19T10:06:09;7.45;;;4.80;;
78183;SDS011;67442;44.570;18.610;2023-11-19T10:08:37;9.52;;;5.00;;
78183;SDS011;67442;44.570;18.610;2023-11-19T10:11:23;9.75;;;5.18;;
78183;SDS011;67442;44.570;18.610;2023-11-19T10:13:51;8.20;;;4.57;;
78183;SDS011;67442;44.570;18.610;2023-11-19T10:16:19;9.80;;;5.57;;
78183;SDS011;67442;44.570;18.610;2023-11-19T10:18:47;7.88;;;4.93;;
78183;SDS011;67442;44.570;18.610;2023-11-19T10:21:18;9.30;;;5.20;;
78183;SDS011;67442;44.570;18.610;2023-11-19T10:23:51;8.50;;;4.88;;
78183;SDS011;67442;44.570;18.610;2023-11-19T10:26:19;8.00;;;5.00;;
78183;SDS011;67442;44.570;18.610;2023-11-19T10:28:47;7.55;;;4.75;;
78183;SDS011;67442;44.570;18.610;2023-11-19T10:31:18;7.20;;;4.35;;
78183;SDS011;67442;44.570;18.610;2023-11-19T10:33:50;9.63;;;5.40;;
78183;SDS011;67442;44.570;18.610;2023-11-19T10:36:18;8.30;;;4.82;;
78183;SDS011;67442;44.570;18.610;2023-11-19T10:38:52;7.80;;;4.85;;
78183;SDS011;67442;44.570;18.610;2023-11-19T10:41:26;7.72;;;4.53;;
78183;SDS011;67442;44.570;18.610;2023-11-19T10:43:57;8.40;;;5.13;;
78183;SDS011;67442;44.570;18.610;2023-11-19T10:46:23;9.18;;;5.13;;
78183;SDS011;67442;44.570;18.610;2023-11-19T10:49:04;8.05;;;5.03;;
78183;SDS011;67442;44.570;18.610;2023-11-19T10:51:32;7.03;;;4.75;;
78183;SDS011;67442;44.570;18.610;2023-11-19T10:54:04;7.45;;;4.68;;
78183;SDS011;67442;44.570;18.610;2023-11-19T10:56:31;8.27;;;5.20;;
78183;SDS011;67442;44.570;18.610;2023-11-19T10:58:59;7.75;;;4.60;;
78183;SDS011;67442;44.570;18.610;2023-11-19T11:01:32;6.72;;;4.63;;
78183;SDS011;67442;44.570;18.610;2023-11-19T11:04:13;7.20;;;4.45;;
78183;SDS011;67442;44.570;18.610;2023-11-19T11:06:44;7.43;;;4.55;;
78183;SDS011;67442;44.570;18.610;2023-11-19T11:09:13;8.15;;;4.80;;
78183;SDS011;67442;44.570;18.610;2023-11-19T11:11:40;8.27;;;4.65;;
78183;SDS011;67442;44.570;18.610;2023-11-19T11:14:16;8.57;;;5.20;;
78183;SDS011;67442;44.570;18.610;2023-11-19T11:16:50;8.27;;;5.22;;
78183;SDS011;67442;44.570;18.610;2023-11-19T11:19:24;8.85;;;4.97;;
78183;SDS011;67442;44.570;18.610;2023-11-19T11:21:53;7.60;;;4.63;;
78183;SDS011;67442;44.570;18.610;2023-11-19T11:24:41;7.05;;;4.32;;
78183;SDS011;67442;44.570;18.610;2023-11-19T11:35:52;8.25;;;4.55;;
78183;SDS011;67442;44.570;18.610;2023-11-19T11:38:45;9.32;;;5.18;;
78183;SDS011;67442;44.570;18.610;2023-11-19T11:41:15;8.82;;;4.90;;
78183;SDS011;67442;44.570;18.610;2023-11-19T11:43:53;7.80;;;5.18;;
78183;SDS011;67442;44.570;18.610;2023-11-19T11:48:59;9.50;;;5.63;;
78183;SDS011;67442;44.570;18.610;2023-11-19T11:54:39;7.75;;;5.05;;
78183;SDS011;67442;44.570;18.610;2023-11-19T11:57:12;8.35;;;5.15;;
78183;SDS011;67442;44.570;18.610;2023-11-19T12:02:12;8.95;;;5.30;;
78183;SDS011;67442;44.570;18.610;2023-11-19T12:04:47;7.45;;;5.00;;
78183;SDS011;67442;44.570;18.610;2023-11-19T12:07:19;8.63;;;5.20;;
78183;SDS011;67442;44.570;18.610;2023-11-19T12:09:53;8.73;;;4.88;;
78183;SDS011;67442;44.570;18.610;2023-11-19T12:12:35;8.30;;;5.03;;
78183;SDS011;67442;44.570;18.610;2023-11-19T13:12:59;10.48;;;5.82;;
78183;SDS011;67442;44.570;18.610;2023-11-19T13:15:45;15.48;;;6.20;;
78183;SDS011;67442;44.570;18.610;2023-11-19T13:18:16;10.57;;;6.18;;
78183;SDS011;67442;44.570;18.610;2023-11-19T13:20:43;10.30;;;5.72;;
78183;SDS011;67442;44.570;18.610;2023-11-19T13:23:13;10.60;;;5.90;;
78183;SDS011;67442;44.570;18.610;2023-11-19T13:25:41;12.45;;;5.82;;
78183;SDS011;67442;44.570;18.610;2023-11-19T13:28:09;12.85;;;6.00;;
78183;SDS011;67442;44.570;18.610;2023-11-19T13:30:36;10.32;;;5.57;;
78183;SDS011;67442;44.570;18.610;2023-11-19T13:33:04;9.70;;;5.57;;
78183;SDS011;67442;44.570;18.610;2023-11-19T13:35:35;13.07;;;6.20;;
78183;SDS011;67442;44.570;18.610;2023-11-19T13:38:08;11.35;;;5.90;;
78183;SDS011;67442;44.570;18.610;2023-11-19T13:40:35;10.48;;;5.75;;
78183;SDS011;67442;44.570;18.610;2023-11-19T13:43:07;9.50;;;5.72;;
78183;SDS011;67442;44.570;18.610;2023-11-19T13:45:38;11.35;;;5.90;;
78183;SDS011;67442;44.570;18.610;2023-11-19T13:48:06;11.52;;;5.53;;
78183;SDS011;67442;44.570;18.610;2023-11-19T13:50:33;12.13;;;5.95;;
78183;SDS011;67442;44.570;18.610;2023-11-19T13:53:00;10.88;;;5.55;;
78183;SDS011;67442;44.570;18.610;2023-11-19T13:55:27;11.13;;;5.65;;
78183;SDS011;67442;44.570;18.610;2023-11-19T13:57:57;9.13;;;5.50;;
78183;SDS011;67442;44.570;18.610;2023-11-19T14:00:28;11.60;;;6.13;;
78183;SDS011;67442;44.570;18.610;2023-11-19T14:02:55;10.93;;;5.95;;
78183;SDS011;67442;44.570;18.610;2023-11-19T14:05:23;9.88;;;5.88;;
78183;SDS011;67442;44.570;18.610;2023-11-19T14:07:49;11.40;;;6.00;;
78183;SDS011;67442;44.570;18.610;2023-11-19T14:10:22;12.10;;;6.18;;
78183;SDS011;67442;44.570;18.610;2023-11-19T14:12:49;11.75;;;6.15;;
78183;SDS011;67442;44.570;18.610;2023-11-19T14:15:16;9.23;;;5.93;;
78183;SDS011;67442;44.570;18.610;2023-11-19T14:17:43;12.82;;;6.65;;
78183;SDS011;67442;44.570;18.610;2023-11-19T14:20:11;11.57;;;6.28;;
78183;SDS011;67442;44.570;18.610;2023-11-19T14:22:43;12.15;;;6.65;;
78183;SDS011;67442;44.570;18.610;2023-11-19T14:25:10;12.27;;;6.63;;
78183;SDS011;67442;44.570;18.610;2023-11-19T14:27:37;12.10;;;6.63;;
78183;SDS011;67442;44.570;18.610;2023-11-19T14:30:05;10.85;;;6.43;;
78183;SDS011;67442;44.570;18.610;2023-11-19T14:32:37;12.02;;;6.30;;
78183;SDS011;67442;44.570;18.610;2023-11-19T14:35:11;13.07;;;6.65;;
78183;SDS011;67442;44.570;18.610;2023-11-19T14:37:42;17.17;;;9.23;;
78183;SDS011;67442;44.570;18.610;2023-11-19T14:40:10;19.20;;;8.52;;
78183;SDS011;67442;44.570;18.610;2023-11-19T14:42:38;15.90;;;8.63;;
78183;SDS011;67442;44.570;18.610;2023-11-19T14:45:09;17.60;;;8.75;;
78183;SDS011;67442;44.570;18.610;2023-11-19T14:47:37;17.33;;;9.20;;
78183;SDS011;67442;44.570;18.610;2023-11-19T14:50:05;16.48;;;8.45;;
78183;SDS011;67442;44.570;18.610;2023-11-19T14:52:35;30.92;;;13.18;;
78183;SDS011;67442;44.570;18.610;2023-11-19T14:55:02;34.90;;;15.15;;
78183;SDS011;67442;44.570;18.610;2023-11-19T14:57:29;32.33;;;15.32;;
78183;SDS011;67442;44.570;18.610;2023-11-19T14:59:57;32.22;;;14.95;;
78183;SDS011;67442;44.570;18.610;2023-11-19T15:02:26;39.78;;;18.35;;
78183;SDS011;67442;44.570;18.610;2023-11-19T15:04:57;36.88;;;18.42;;
78183;SDS011;67442;44.570;18.610;2023-11-19T15:07:25;42.55;;;19.55;;
78183;SDS011;67442;44.570;18.610;2023-11-19T15:09:52;51.15;;;24.02;;
78183;SDS011;67442;44.570;18.610;2023-11-19T15:12:20;43.65;;;22.80;;
78183;SDS011;67442;44.570;18.610;2023-11-19T15:14:48;46.08;;;23.08;;
78183;SDS011;67442;44.570;18.610;2023-11-19T15:17:19;46.67;;;22.23;;
78183;SDS011;67442;44.570;18.610;2023-11-19T15:19:47;44.60;;;22.05;;
78183;SDS011;67442;44.570;18.610;2023-11-19T15:22:16;44.15;;;23.08;;
78183;SDS011;67442;44.570;18.610;2023-11-19T15:24:43;41.92;;;20.63;;
78183;SDS011;67442;44.570;18.610;2023-11-19T15:27:11;46.88;;;23.70;;
78183;SDS011;67442;44.570;18.610;2023-11-19T15:29:38;49.65;;;24.30;;
78183;SDS011;67442;44.570;18.610;2023-11-19T15:32:06;45.65;;;22.55;;
78183;SDS011;67442;44.570;18.610;2023-11-19T15:34:33;42.80;;;21.73;;
78183;SDS011;67442;44.570;18.610;2023-11-19T15:37:03;38.90;;;19.55;;
78183;SDS011;67442;44.570;18.610;2023-11-19T15:39:31;37.70;;;19.08;;
78183;SDS011;67442;44.570;18.610;2023-11-19T15:42:04;33.40;;;18.58;;
78183;SDS011;67442;44.570;18.610;2023-11-19T15:44:31;33.97;;;18.50;;
78183;SDS011;67442;44.570;18.610;2023-11-19T15:46:59;34.22;;;16.75;;
78183;SDS011;67442;44.570;18.610;2023-11-19T15:49:28;38.08;;;19.23;;
78183;SDS011;67442;44.570;18.610;2023-11-19T15:51:56;33.67;;;16.73;;
78183;SDS011;67442;44.570;18.610;2023-11-19T15:54:27;31.17;;;17.27;;